createdAt,value
2024-02-01T00:00:32.696Z,232.2
2024-02-01T00:01:32.658Z,235.9
2024-02-01T00:02:32.789Z,234.6
2024-02-01T00:03:32.638Z,242.9
2024-02-01T00:04:32.638Z,258.4
2024-02-01T00:05:32.717Z,239.2
2024-02-01T00:06:32.776Z,241.6
2024-02-01T00:07:32.634Z,234
2024-02-01T00:08:32.662Z,230.8
2024-02-01T00:09:32.642Z,239
2024-02-01T00:10:32.660Z,248.9
2024-02-01T00:11:32.673Z,264.2
2024-02-01T00:12:32.657Z,266.2
2024-02-01T00:13:32.668Z,252.7
2024-02-01T00:14:32.758Z,235.3
2024-02-01T00:15:32.662Z,213.8
2024-02-01T00:16:32.610Z,247.2
2024-02-01T00:17:32.725Z,213.4
2024-02-01T00:18:32.714Z,197.7
2024-02-01T00:19:32.724Z,242.9
2024-02-01T00:20:32.680Z,288.5
2024-02-01T00:21:32.628Z,68.9
2024-02-01T00:22:34.497Z,262.8
2024-02-01T00:23:32.668Z,239
2024-02-01T00:24:32.616Z,248.9
2024-02-01T00:25:32.624Z,266.8
2024-02-01T00:26:32.663Z,232.9
2024-02-01T00:27:32.668Z,232.2
2024-02-01T00:28:32.634Z,239.2
2024-02-01T00:29:32.651Z,229.1
2024-02-01T00:30:32.668Z,230.4
2024-02-01T00:31:32.710Z,195.3
2024-02-01T00:32:32.720Z,168.6
2024-02-01T00:33:33.023Z,258.1
2024-02-01T00:34:32.679Z,254.8
2024-02-01T00:35:32.683Z,246.2
2024-02-01T00:36:32.665Z,236.7
2024-02-01T00:37:32.672Z,239
2024-02-01T00:38:32.672Z,231.1
2024-02-01T00:39:32.646Z,227.3
2024-02-01T00:40:32.655Z,196.6
2024-02-01T00:41:32.722Z,228.6
2024-02-01T00:42:32.659Z,222.4
2024-02-01T00:43:32.647Z,258.1
2024-02-01T00:44:32.665Z,192.1
2024-02-01T00:45:32.677Z,216.3
2024-02-01T00:46:32.657Z,231.1
2024-02-01T00:47:32.808Z,248.6
2024-02-01T00:48:32.911Z,207
2024-02-01T00:50:32.650Z,200.3
2024-02-01T00:51:32.649Z,194
2024-02-01T00:52:32.650Z,201.8
2024-02-01T00:53:32.728Z,210.9
2024-02-01T00:54:32.649Z,206.7
2024-02-01T00:55:32.637Z,212.6
2024-02-01T00:56:32.639Z,214
2024-02-01T00:57:32.649Z,218.4
2024-02-01T00:58:32.661Z,212.4
2024-02-01T00:59:32.729Z,213.6
2024-02-01T01:00:32.794Z,233.4
2024-02-01T01:01:32.767Z,244.8
2024-02-01T01:02:32.671Z,243.2
2024-02-01T01:03:32.648Z,230.9
2024-02-01T01:04:32.684Z,194.5
2024-02-01T01:05:32.689Z,183.4
2024-02-01T01:06:32.649Z,205.6
2024-02-01T01:07:32.651Z,215.5
2024-02-01T01:08:32.679Z,232.4
2024-02-01T01:09:32.695Z,210.7
2024-02-01T01:10:32.653Z,213
2024-02-01T01:11:32.649Z,212.2
2024-02-01T01:12:32.617Z,234.2
2024-02-01T01:13:32.692Z,236.9
2024-02-01T01:14:32.648Z,235.3
2024-02-01T01:15:32.650Z,224.1
2024-02-01T01:16:32.592Z,226.4
2024-02-01T01:17:32.693Z,228
2024-02-01T01:18:32.757Z,232.9
2024-02-01T01:19:32.680Z,247.2
2024-02-01T01:20:32.634Z,236.5
2024-02-01T01:21:32.598Z,245.7
2024-02-01T01:22:32.648Z,234.2
2024-02-01T01:23:32.685Z,234
2024-02-01T01:24:32.655Z,229.3
2024-02-01T01:25:32.629Z,228.8
2024-02-01T01:26:32.666Z,214.6
2024-02-01T01:27:32.644Z,227.6
2024-02-01T01:28:32.643Z,229.9
2024-02-01T01:29:32.694Z,226.7
2024-02-01T01:30:32.651Z,241.6
2024-02-01T01:31:32.657Z,226.1
2024-02-01T01:32:32.696Z,217.4
2024-02-01T01:33:32.800Z,214.6
2024-02-01T01:34:32.685Z,229.3
2024-02-01T01:35:32.664Z,215.3
2024-02-01T01:36:32.674Z,214.6
2024-02-01T01:37:32.674Z,218.1
2024-02-01T01:38:32.677Z,242.5
2024-02-01T01:39:32.660Z,226
2024-02-01T01:40:32.652Z,217.4
2024-02-01T01:41:32.661Z,236.5
2024-02-01T01:42:32.672Z,212
2024-02-01T01:43:32.645Z,214
2024-02-01T01:44:32.700Z,235.3
2024-02-01T01:45:32.664Z,230.9
2024-02-01T01:46:32.642Z,235.9
2024-02-01T01:47:32.754Z,244.8
2024-02-01T01:48:32.729Z,238.6
2024-02-01T01:49:32.686Z,235.2
2024-02-01T01:50:32.682Z,256.2
2024-02-01T01:51:32.638Z,247.2
2024-02-01T01:52:32.660Z,256.7
2024-02-01T01:53:32.697Z,246.4
2024-02-01T01:54:32.649Z,247.9
2024-02-01T01:55:32.614Z,265.1
2024-02-01T01:56:32.649Z,239.4
2024-02-01T01:57:32.613Z,234.6
2024-02-01T01:58:32.650Z,244.8
2024-02-01T01:59:32.659Z,213
2024-02-01T02:00:32.643Z,227.8
2024-02-01T02:01:32.649Z,208.1
2024-02-01T02:02:32.675Z,210.9
2024-02-01T02:03:32.723Z,233.1
2024-02-01T02:04:32.659Z,228.3
2024-02-01T02:05:32.740Z,253.3
2024-02-01T02:06:32.697Z,239.4
2024-02-01T02:07:32.657Z,275.4
2024-02-01T02:08:32.648Z,247.2
2024-02-01T02:09:32.665Z,249.6
2024-02-01T02:10:33.752Z,260.9
2024-02-01T02:11:32.628Z,257.5
2024-02-01T02:12:32.642Z,235.3
2024-02-01T02:13:32.649Z,241.6
2024-02-01T02:14:32.722Z,226.1
2024-02-01T02:15:32.624Z,242.3
2024-02-01T02:16:32.715Z,287.4
2024-02-01T02:17:32.718Z,346.7
2024-02-01T02:18:32.756Z,303.4
2024-02-01T02:19:32.671Z,211.1
2024-02-01T02:20:32.656Z,224.9
2024-02-01T02:21:32.661Z,231.6
2024-02-01T02:22:32.650Z,251.4
2024-02-01T02:23:32.662Z,228.8
2024-02-01T02:24:32.654Z,221.8
2024-02-01T02:25:32.631Z,227.3
2024-02-01T02:26:32.669Z,239.8
2024-02-01T02:27:32.646Z,246.7
2024-02-01T02:28:32.629Z,236.3
2024-02-01T02:29:32.687Z,230.3
2024-02-01T02:30:32.652Z,227
2024-02-01T02:31:32.643Z,235.9
2024-02-01T02:32:32.704Z,246.7
2024-02-01T02:33:32.852Z,241.1
2024-02-01T02:34:32.703Z,214.4
2024-02-01T02:35:32.794Z,258.6
2024-02-01T02:36:32.653Z,253
2024-02-01T02:37:32.654Z,263.1
2024-02-01T02:38:32.665Z,258.9
2024-02-01T02:39:32.577Z,215.9
2024-02-01T02:40:32.662Z,205.1
2024-02-01T02:41:33.421Z,211.5
2024-02-01T02:42:32.638Z,205.1
2024-02-01T02:43:32.660Z,197.2
2024-02-01T02:44:32.674Z,180
2024-02-01T02:45:32.663Z,191.8
2024-02-01T02:46:32.631Z,200.3
2024-02-01T02:47:32.774Z,198.7
2024-02-01T02:48:32.709Z,211.1
2024-02-01T02:49:32.703Z,213.8
2024-02-01T02:50:32.638Z,224.5
2024-02-01T02:51:32.647Z,209.2
2024-02-01T02:52:32.635Z,207.2
2024-02-01T02:53:32.697Z,212.6
2024-02-01T02:54:32.616Z,212
2024-02-01T02:55:32.648Z,211.3
2024-02-01T02:56:32.661Z,213.4
2024-02-01T02:57:32.648Z,232.5
2024-02-01T02:58:32.628Z,229.3
2024-02-01T02:59:32.706Z,209.4
2024-02-01T03:00:32.659Z,212.6
2024-02-01T03:01:32.719Z,207.6
2024-02-01T03:02:32.651Z,210.7
2024-02-01T03:03:32.651Z,212.8
2024-02-01T03:04:32.657Z,229.3
2024-02-01T03:05:32.636Z,234.6
2024-02-01T03:06:32.714Z,232.2
2024-02-01T03:07:32.662Z,244.8
2024-02-01T03:08:32.697Z,236.7
2024-02-01T03:09:34.562Z,228.1
2024-02-01T03:10:32.650Z,230.4
2024-02-01T03:11:32.643Z,231.1
2024-02-01T03:12:32.661Z,233.8
2024-02-01T03:13:32.653Z,228.8
2024-02-01T03:14:32.624Z,224.7
2024-02-01T03:15:32.658Z,241.8
2024-02-01T03:16:32.673Z,242.5
2024-02-01T03:17:32.745Z,235.3
2024-02-01T03:18:32.746Z,216.5
2024-02-01T03:19:32.771Z,236.3
2024-02-01T03:20:32.728Z,241.6
2024-02-01T03:21:32.640Z,234
2024-02-01T03:22:32.656Z,236.7
2024-02-01T03:23:32.711Z,241.6
2024-02-01T03:24:32.623Z,246.2
2024-02-01T03:25:32.760Z,237.3
2024-02-01T03:26:32.645Z,234
2024-02-01T03:27:32.638Z,242
2024-02-01T03:28:32.641Z,241.8
2024-02-01T03:29:32.657Z,239.2
2024-02-01T03:30:32.650Z,244.1
2024-02-01T03:31:32.639Z,235.9
2024-02-01T03:32:32.682Z,241.4
2024-02-01T03:33:32.760Z,236.7
2024-02-01T03:34:32.676Z,231.6
2024-02-01T03:35:32.675Z,235.3
2024-02-01T03:36:32.615Z,243.8
2024-02-01T03:37:32.587Z,247.4
2024-02-01T03:38:32.685Z,247.7
2024-02-01T03:39:32.640Z,247.9
2024-02-01T03:40:32.711Z,252.2
2024-02-01T03:41:32.783Z,244.5
2024-02-01T03:42:32.630Z,250.9
2024-02-01T03:43:32.663Z,261.4
2024-02-01T03:44:32.665Z,247.2
2024-02-01T03:45:32.656Z,267.9
2024-02-01T03:46:32.647Z,266.2
2024-02-01T03:47:32.664Z,242.3
2024-02-01T03:48:32.727Z,250.7
2024-02-01T03:49:32.765Z,246.2
2024-02-01T03:50:32.652Z,240.9
2024-02-01T03:51:32.660Z,240.5
2024-02-01T03:52:32.615Z,238.6
2024-02-01T03:53:32.740Z,243.8
2024-02-01T03:54:32.651Z,235.7
2024-02-01T03:55:32.637Z,240.9
2024-02-01T03:56:32.667Z,233.4
2024-02-01T03:57:32.625Z,210.3
2024-02-01T03:58:32.638Z,213.4
2024-02-01T03:59:32.746Z,222.9
2024-02-01T04:00:32.697Z,240.5
2024-02-01T04:01:32.658Z,249.6
2024-02-01T04:02:32.655Z,237.3
2024-02-01T04:03:32.650Z,214.2
2024-02-01T04:04:32.782Z,190.7
2024-02-01T04:05:32.719Z,210.1
2024-02-01T04:06:32.757Z,213.6
2024-02-01T04:07:32.625Z,233.4
2024-02-01T04:08:32.669Z,239.2
2024-02-01T04:09:32.670Z,217.4
2024-02-01T04:10:32.630Z,218.8
2024-02-01T04:11:32.791Z,215.7
2024-02-01T04:12:32.615Z,212.8
2024-02-01T04:13:32.647Z,210.7
2024-02-01T04:14:32.672Z,226.7
2024-02-01T04:15:32.650Z,210.7
2024-02-01T04:16:32.658Z,211.3
2024-02-01T04:17:32.779Z,224.7
2024-02-01T04:18:32.751Z,249.6
2024-02-01T04:19:32.720Z,246.9
2024-02-01T04:20:32.718Z,233.1
2024-02-01T04:21:32.626Z,239.8
2024-02-01T04:22:32.661Z,242.5
2024-02-01T04:23:32.661Z,244.5
2024-02-01T04:24:32.660Z,228.3
2024-02-01T04:25:32.667Z,240.7
2024-02-01T04:26:32.644Z,254
2024-02-01T04:27:32.640Z,271.4
2024-02-01T04:28:32.639Z,299
2024-02-01T04:29:32.701Z,303
2024-02-01T04:30:32.631Z,279
2024-02-01T04:31:32.620Z,303.4
2024-02-01T04:32:32.800Z,281.8
2024-02-01T04:33:32.746Z,238.2
2024-02-01T04:34:32.657Z,215.5
2024-02-01T04:35:32.689Z,233.3
2024-02-01T04:36:32.641Z,243.8
2024-02-01T04:37:32.632Z,245.7
2024-02-01T04:38:32.678Z,245.2
2024-02-01T04:39:32.653Z,255.1
2024-02-01T04:40:32.659Z,209.8
2024-02-01T04:41:32.680Z,220.6
2024-02-01T04:42:32.672Z,223
2024-02-01T04:43:32.660Z,231.6
2024-02-01T04:44:32.668Z,232
2024-02-01T04:45:32.664Z,241.8
2024-02-01T04:46:32.622Z,248.4
2024-02-01T04:47:32.680Z,239.4
2024-02-01T04:48:32.757Z,251.4
2024-02-01T04:49:32.820Z,243.6
2024-02-01T04:50:32.679Z,252.2
2024-02-01T04:51:32.640Z,243.2
2024-02-01T04:52:32.649Z,241.4
2024-02-01T04:53:32.723Z,245
2024-02-01T04:54:32.650Z,254.3
2024-02-01T04:55:35.316Z,252.2
2024-02-01T04:56:32.627Z,251.9
2024-02-01T04:57:32.649Z,242.7
2024-02-01T04:58:32.639Z,225.1
2024-02-01T04:59:32.648Z,232.9
2024-02-01T05:00:32.668Z,246.7
2024-02-01T05:01:32.795Z,244.8
2024-02-01T05:02:32.695Z,249.1
2024-02-01T05:03:32.734Z,63.6
2024-02-01T05:04:32.689Z,90
2024-02-01T05:05:32.811Z,82.3
2024-02-01T05:06:32.840Z,86.5
2024-02-01T05:07:32.604Z,83.7
2024-02-01T05:08:32.722Z,110.8
2024-02-01T05:09:32.665Z,97.6
2024-02-01T05:10:32.658Z,90.2
2024-02-01T05:11:32.724Z,92.8
2024-02-01T05:12:32.647Z,94.8
2024-02-01T05:13:32.651Z,102.6
2024-02-01T05:14:32.752Z,94.2
2024-02-01T05:15:32.655Z,73.8
2024-02-01T05:16:32.639Z,70.4
2024-02-01T05:17:32.761Z,65.5
2024-02-01T05:18:32.796Z,55.5
2024-02-01T05:19:32.795Z,62
2024-02-01T05:20:32.812Z,335.2
2024-02-01T05:21:32.651Z,330.1
2024-02-01T05:22:32.641Z,330.5
2024-02-01T05:23:32.743Z,59.2
2024-02-01T05:24:32.667Z,110.5
2024-02-01T05:25:32.633Z,95.9
2024-02-01T05:26:32.710Z,122.2
2024-02-01T05:27:32.667Z,119.2
2024-02-01T05:28:32.649Z,154.1
2024-02-01T05:29:32.733Z,156.2
2024-02-01T05:30:32.706Z,157.2
2024-02-01T05:31:32.657Z,128.1
2024-02-01T05:32:32.687Z,108
2024-02-01T05:33:32.764Z,72.7
2024-02-01T05:34:32.727Z,79.2
2024-02-01T05:35:32.675Z,78.4
2024-02-01T05:36:32.663Z,94
2024-02-01T05:37:32.658Z,111.3
2024-02-01T05:38:32.612Z,66
2024-02-01T05:39:32.679Z,63.8
2024-02-01T05:40:32.690Z,74
2024-02-01T05:41:32.662Z,98.8
2024-02-01T05:42:32.673Z,84.5
2024-02-01T05:43:32.644Z,94.5
2024-02-01T05:44:32.698Z,64.3
2024-02-01T05:45:32.731Z,87.9
2024-02-01T05:46:32.606Z,94.5
2024-02-01T05:47:32.657Z,57.9
2024-02-01T05:48:32.795Z,140.1
2024-02-01T05:49:32.839Z,66.7
2024-02-01T05:50:32.659Z,37.4
2024-02-01T05:51:32.695Z,8.8
2024-02-01T05:52:32.641Z,40.3
2024-02-01T05:53:32.679Z,73.8
2024-02-01T05:54:32.648Z,125.9
2024-02-01T05:55:32.671Z,180.2
2024-02-01T05:56:32.636Z,194.8
2024-02-01T05:57:32.638Z,214.7
2024-02-01T05:58:32.661Z,217.4
2024-02-01T05:59:32.663Z,210.3
2024-02-01T06:00:32.795Z,225.4
2024-02-01T06:01:32.664Z,264
2024-02-01T06:02:32.642Z,277.6
2024-02-01T06:03:32.710Z,279
2024-02-01T06:04:32.683Z,247.2
2024-02-01T06:05:32.629Z,290.3
2024-02-01T06:06:32.846Z,296.3
2024-02-01T06:07:32.693Z,289.2
2024-02-01T06:08:32.638Z,239.8
2024-02-01T06:09:32.639Z,251.4
2024-02-01T06:10:32.667Z,256.7
2024-02-01T06:11:32.658Z,258.6
2024-02-01T06:12:35.755Z,267.4
2024-02-01T06:13:32.634Z,288.7
2024-02-01T06:14:32.659Z,270.8
2024-02-01T06:15:32.650Z,295.6
2024-02-01T06:16:32.639Z,290.3
2024-02-01T06:17:32.678Z,286.9
2024-02-01T06:18:32.747Z,282.1
2024-02-01T06:19:32.719Z,242
2024-02-01T06:20:32.640Z,232.4
2024-02-01T06:21:32.651Z,223.6
2024-02-01T06:22:32.679Z,231.3
2024-02-01T06:23:32.654Z,239
2024-02-01T06:24:32.648Z,241.1
2024-02-01T06:25:32.689Z,231.6
2024-02-01T06:26:32.635Z,226.4
2024-02-01T06:27:32.644Z,239.6
2024-02-01T06:28:32.631Z,240.1
2024-02-01T06:29:32.651Z,233.8
2024-02-01T06:30:32.691Z,228.8
2024-02-01T06:31:32.651Z,209.4
2024-02-01T06:32:32.639Z,215.7
2024-02-01T06:33:32.750Z,216.6
2024-02-01T06:34:32.667Z,235.9
2024-02-01T06:35:32.651Z,245.7
2024-02-01T06:36:32.708Z,224.5
2024-02-01T06:37:32.684Z,220.3
2024-02-01T06:38:32.636Z,214.6
2024-02-01T06:39:32.688Z,215.9
2024-02-01T06:40:32.673Z,231.3
2024-02-01T06:41:32.657Z,238.6
2024-02-01T06:42:32.712Z,228.6
2024-02-01T06:43:32.648Z,233.8
2024-02-01T06:44:32.697Z,246.2
2024-02-01T06:45:32.729Z,233.8
2024-02-01T06:46:32.725Z,215.7
2024-02-01T06:47:32.693Z,213.6
2024-02-01T06:48:32.709Z,230.9
2024-02-01T06:49:35.830Z,235.2
2024-02-01T06:50:32.700Z,236.1
2024-02-01T06:51:32.689Z,240.5
2024-02-01T06:52:32.666Z,245
2024-02-01T06:53:32.659Z,241.6
2024-02-01T06:54:32.748Z,242.7
2024-02-01T06:55:32.663Z,255.9
2024-02-01T06:56:32.660Z,238.2
2024-02-01T06:57:32.694Z,248.9
2024-02-01T06:58:32.741Z,243.8
2024-02-01T06:59:33.693Z,250.9
2024-02-01T07:00:32.707Z,253
2024-02-01T07:01:32.786Z,253
2024-02-01T07:02:32.658Z,265.1
2024-02-01T07:03:32.792Z,235
2024-02-01T07:04:32.791Z,220
2024-02-01T07:05:32.740Z,235.9
2024-02-01T07:06:32.711Z,227
2024-02-01T07:07:32.671Z,237.9
2024-02-01T07:08:32.677Z,237.7
2024-02-01T07:09:32.697Z,241.1
2024-02-01T07:10:32.676Z,242.7
2024-02-01T07:11:32.647Z,305.9
2024-02-01T07:12:32.709Z,310.1
2024-02-01T07:13:32.640Z,347.3
2024-02-01T07:14:32.660Z,294.7
2024-02-01T07:15:33.680Z,216.1
2024-02-01T07:16:32.644Z,245.7
2024-02-01T07:17:32.722Z,265.7
2024-02-01T07:18:32.897Z,248.4
2024-02-01T07:19:32.745Z,263.4
2024-02-01T07:20:32.673Z,304.4
2024-02-01T07:21:32.791Z,334.5
2024-02-01T07:22:32.638Z,318.8
2024-02-01T07:23:32.656Z,302
2024-02-01T07:24:32.756Z,320.4
2024-02-01T07:25:32.639Z,349.2
2024-02-01T07:26:32.645Z,278.2
2024-02-01T07:27:32.740Z,281
2024-02-01T07:28:32.631Z,253
2024-02-01T07:29:32.632Z,205.6
2024-02-01T07:30:32.660Z,205.1
2024-02-01T07:31:32.640Z,192.6
2024-02-01T07:32:32.709Z,210.1
2024-02-01T07:33:32.706Z,196.9
2024-02-01T07:34:32.664Z,229.1
2024-02-01T07:35:32.642Z,246
2024-02-01T07:36:32.640Z,302
2024-02-01T07:37:32.658Z,272.8
2024-02-01T07:38:32.656Z,237.1
2024-02-01T07:39:32.627Z,238.4
2024-02-01T07:40:32.935Z,264.5
2024-02-01T07:41:32.663Z,279.9
2024-02-01T07:42:32.638Z,197.4
2024-02-01T07:43:32.652Z,241.6
2024-02-01T07:44:32.653Z,236.7
2024-02-01T07:45:32.640Z,249.6
2024-02-01T07:46:32.958Z,265.7
2024-02-01T07:47:32.733Z,250.9
2024-02-01T07:48:32.757Z,225.4
2024-02-01T07:49:32.742Z,224.5
2024-02-01T07:50:32.644Z,269.1
2024-02-01T07:51:32.654Z,251.2
2024-02-01T07:52:32.653Z,309.6
2024-02-01T07:53:32.656Z,315.4
2024-02-01T07:54:32.614Z,325.5
2024-02-01T07:55:32.649Z,310.3
2024-02-01T07:56:32.657Z,263.4
2024-02-01T07:57:32.628Z,246.7
2024-02-01T07:58:32.655Z,75.6
2024-02-01T07:59:32.654Z,302
2024-02-01T08:00:32.679Z,279
2024-02-01T08:01:32.657Z,299
2024-02-01T08:02:32.663Z,274.2
2024-02-01T08:03:32.763Z,312.7
2024-02-01T08:04:32.704Z,281.3
2024-02-01T08:05:32.678Z,294.9
2024-02-01T08:06:32.832Z,295.1
2024-02-01T08:07:32.657Z,309.6
2024-02-01T08:08:32.634Z,319.9
2024-02-01T08:09:32.648Z,290.5
2024-02-01T08:10:32.635Z,277.1
2024-02-01T08:11:32.614Z,264.5
2024-02-01T08:12:32.654Z,285.1
2024-02-01T08:13:32.660Z,286.6
2024-02-01T08:14:32.660Z,308.3
2024-02-01T08:15:32.653Z,292.2
2024-02-01T08:16:32.661Z,202.2
2024-02-01T08:17:32.796Z,217.5
2024-02-01T08:18:32.762Z,239.2
2024-02-01T08:19:40.050Z,242.3
2024-02-01T08:20:32.622Z,239.2
2024-02-01T08:21:32.656Z,237.7
2024-02-01T08:22:32.662Z,228.3
2024-02-01T08:23:32.625Z,235.3
2024-02-01T08:24:32.659Z,235.2
2024-02-01T08:25:32.654Z,209.2
2024-02-01T08:26:32.711Z,215.9
2024-02-01T08:27:32.621Z,213.4
2024-02-01T08:28:32.621Z,225.7
2024-02-01T08:29:32.634Z,225.7
2024-02-01T08:30:32.692Z,232.5
2024-02-01T08:31:32.628Z,229.8
2024-02-01T08:32:32.699Z,314.2
2024-02-01T08:33:32.712Z,239.8
2024-02-01T08:34:32.708Z,244.3
2024-02-01T08:35:32.610Z,217.5
2024-02-01T08:36:32.684Z,316.9
2024-02-01T08:37:32.640Z,293.5
2024-02-01T08:38:32.652Z,297.2
2024-02-01T08:39:32.654Z,267.4
2024-02-01T08:40:32.667Z,272.2
2024-02-01T08:41:32.661Z,279.9
2024-02-01T08:42:34.489Z,299.2
2024-02-01T08:43:32.627Z,290.8
2024-02-01T08:44:32.654Z,281.3
2024-02-01T08:45:32.664Z,284
2024-02-01T08:46:32.606Z,231.6
2024-02-01T08:47:32.633Z,193.2
2024-02-01T08:48:32.720Z,98.5
2024-02-01T08:49:32.760Z,20.3
2024-02-01T08:50:32.663Z,349.7
2024-02-01T08:51:32.679Z,316.4
2024-02-01T08:52:32.651Z,279.3
2024-02-01T08:53:32.631Z,90
2024-02-01T08:54:32.914Z,89.1
2024-02-01T08:55:32.680Z,100.4
2024-02-01T08:56:32.656Z,101
2024-02-01T08:57:32.644Z,168.4
2024-02-01T08:58:32.665Z,126.6
2024-02-01T08:59:32.638Z,103.4
2024-02-01T09:00:32.656Z,62.5
2024-02-01T09:01:34.976Z,90.2
2024-02-01T09:02:32.648Z,94
2024-02-01T09:03:32.656Z,97.6
2024-02-01T09:04:32.684Z,90
2024-02-01T09:05:32.764Z,112.2
2024-02-01T09:06:32.768Z,75.4
2024-02-01T09:07:33.065Z,127
2024-02-01T09:08:32.614Z,95.7
2024-02-01T09:09:32.650Z,112.2
2024-02-01T09:10:32.641Z,81.1
2024-02-01T09:11:32.650Z,105.3
2024-02-01T09:12:32.597Z,123.8
2024-02-01T09:13:32.651Z,127.2
2024-02-01T09:14:32.663Z,107.2
2024-02-01T09:15:32.875Z,360
2024-02-01T09:16:32.984Z,69.4
2024-02-01T09:17:32.654Z,14.3
2024-02-01T09:18:32.769Z,30.9
2024-02-01T09:19:32.732Z,37.2
2024-02-01T09:20:32.599Z,19.5
2024-02-01T09:21:32.699Z,73
2024-02-01T09:22:32.626Z,72.2
2024-02-01T09:23:32.662Z,36.6
2024-02-01T09:24:32.646Z,66.7
2024-02-01T09:25:32.625Z,53.4
2024-02-01T09:26:32.624Z,47
2024-02-01T09:27:32.756Z,20.8
2024-02-01T09:28:32.661Z,53.8
2024-02-01T09:29:32.665Z,68.1
2024-02-01T09:30:32.810Z,27.4
2024-02-01T09:31:32.626Z,69.4
2024-02-01T09:32:32.664Z,21.3
2024-02-01T09:33:32.820Z,21
2024-02-01T09:34:32.734Z,125.5
2024-02-01T09:35:32.645Z,94.5
2024-02-01T09:36:32.642Z,320.8
2024-02-01T09:37:32.665Z,33.8
2024-02-01T09:38:32.661Z,360
2024-02-01T09:39:32.643Z,23.7
2024-02-01T09:40:32.638Z,357.7
2024-02-01T09:41:32.678Z,4.5
2024-02-01T09:42:32.642Z,33.8
2024-02-01T09:43:32.665Z,25.6
2024-02-01T09:44:32.657Z,225.1
2024-02-01T09:45:32.639Z,108.2
2024-02-01T09:46:32.645Z,99
2024-02-01T09:47:32.683Z,4.5
2024-02-01T09:48:32.767Z,12.1
2024-02-01T09:49:33.342Z,77.3
2024-02-01T09:50:32.655Z,14.8
2024-02-01T09:51:32.651Z,356.5
2024-02-01T09:52:32.638Z,356.5
2024-02-01T09:53:32.663Z,168.4
2024-02-01T09:54:32.681Z,152
2024-02-01T09:55:32.633Z,187.9
2024-02-01T09:56:32.665Z,198.7
2024-02-01T09:57:32.635Z,207.2
2024-02-01T09:58:32.655Z,161.9
2024-02-01T09:59:32.655Z,201.3
2024-02-01T10:00:32.636Z,197.7
2024-02-01T10:01:32.705Z,210.1
2024-02-01T10:02:32.655Z,204.4
2024-02-01T10:03:32.748Z,226.7
2024-02-01T10:04:32.664Z,225.8
2024-02-01T10:05:32.658Z,214.6
2024-02-01T10:06:32.766Z,213.2
2024-02-01T10:07:32.644Z,205.4
2024-02-01T10:08:32.657Z,224.1
2024-02-01T10:09:32.614Z,233.3
2024-02-01T10:10:32.660Z,241.1
2024-02-01T10:11:32.679Z,225.4
2024-02-01T10:12:32.621Z,222.7
2024-02-01T10:13:33.185Z,121.1
2024-02-01T10:14:32.644Z,153.8
2024-02-01T10:15:32.797Z,242.3
2024-02-01T10:16:32.652Z,130.8
2024-02-01T10:17:32.667Z,159.4
2024-02-01T10:18:32.768Z,128.4
2024-02-01T10:19:32.759Z,125.9
2024-02-01T10:20:32.614Z,155.2
2024-02-01T10:21:39.798Z,205.1
2024-02-01T10:22:32.636Z,230.9
2024-02-01T10:23:32.662Z,237.1
2024-02-01T10:24:32.675Z,208.1
2024-02-01T10:25:32.634Z,165.9
2024-02-01T10:26:32.656Z,172
2024-02-01T10:27:32.717Z,86.2
2024-02-01T10:28:32.640Z,105.1
2024-02-01T10:29:32.598Z,131.9
2024-02-01T10:30:32.625Z,128.3
2024-02-01T10:31:33.044Z,97.1
2024-02-01T10:32:32.704Z,114.4
2024-02-01T10:33:32.929Z,94.5
2024-02-01T10:34:32.761Z,160.4
2024-02-01T10:35:32.655Z,141.1
2024-02-01T10:36:32.663Z,145.2
2024-02-01T10:37:32.648Z,125.7
2024-02-01T10:38:32.647Z,70.9
2024-02-01T10:39:32.642Z,13.4
2024-02-01T10:40:32.673Z,11.5
2024-02-01T10:41:32.678Z,27
2024-02-01T10:42:32.620Z,311.3
2024-02-01T10:43:32.633Z,221.9
2024-02-01T10:44:32.652Z,190.7
2024-02-01T10:45:32.672Z,175.7
2024-02-01T10:46:32.650Z,195.3
2024-02-01T10:47:32.646Z,2.8
2024-02-01T10:48:32.763Z,14.5
2024-02-01T10:49:32.694Z,24.2
2024-02-01T10:50:32.661Z,46.6
2024-02-01T10:51:32.664Z,81.7
2024-02-01T10:52:32.641Z,6.2
2024-02-01T10:53:32.666Z,6.2
2024-02-01T10:54:32.732Z,24.2
2024-02-01T10:55:32.650Z,54.4
2024-02-01T10:56:32.645Z,32.8
2024-02-01T10:57:32.618Z,15.6
2024-02-01T10:58:32.623Z,26.5
2024-02-01T10:59:32.657Z,65.7
2024-02-01T11:00:32.655Z,47.6
2024-02-01T11:01:32.660Z,57.7
2024-02-01T11:02:32.657Z,59.6
2024-02-01T11:03:34.503Z,97.6
2024-02-01T11:04:32.651Z,82.5
2024-02-01T11:05:32.656Z,108
2024-02-01T11:06:32.735Z,97.1
2024-02-01T11:07:32.638Z,157.9
2024-02-01T11:08:32.643Z,147.7
2024-02-01T11:09:35.215Z,125.3
2024-02-01T11:10:32.656Z,116.3
2024-02-01T11:11:32.673Z,312.6
2024-02-01T11:12:32.665Z,332.7
2024-02-01T11:13:32.636Z,328.4
2024-02-01T11:14:32.687Z,320.6
2024-02-01T11:15:32.735Z,269.1
2024-02-01T11:16:32.616Z,96.2
2024-02-01T11:17:32.729Z,75.6
2024-02-01T11:18:32.762Z,0.8
2024-02-01T11:19:36.708Z,9.6
2024-02-01T11:20:32.740Z,22.2
2024-02-01T11:21:32.644Z,31.1
2024-02-01T11:22:32.654Z,15.9
2024-02-01T11:23:32.648Z,13.7
2024-02-01T11:24:32.651Z,9.3
2024-02-01T11:25:32.649Z,15.1
2024-02-01T11:26:32.630Z,76.2
2024-02-01T11:27:32.667Z,61.4
2024-02-01T11:28:32.672Z,55.7
2024-02-01T11:29:32.654Z,68.9
2024-02-01T11:30:32.727Z,81.7
2024-02-01T11:31:42.094Z,75.9
2024-02-01T11:32:32.675Z,106.1
2024-02-01T11:33:32.734Z,119
2024-02-01T11:34:32.737Z,110.3
2024-02-01T11:35:32.642Z,95.1
2024-02-01T11:36:32.657Z,94.8
2024-02-01T11:37:32.675Z,134.8
2024-02-01T11:38:32.688Z,182.8
2024-02-01T11:39:32.635Z,195.3
2024-02-01T11:40:32.612Z,190.2
2024-02-01T11:41:32.636Z,161.2
2024-02-01T11:42:33.866Z,169.5
2024-02-01T11:43:32.636Z,200
2024-02-01T11:44:32.654Z,48
2024-02-01T11:45:32.675Z,14.8
2024-02-01T11:46:32.638Z,354.8
2024-02-01T11:47:32.654Z,180.8
2024-02-01T11:48:32.783Z,257.3
2024-02-01T11:49:32.974Z,284.5
2024-02-01T11:50:32.656Z,87.1
2024-02-01T11:51:32.654Z,94.5
2024-02-01T11:52:32.645Z,89.4
2024-02-01T11:53:32.632Z,58.4
2024-02-01T11:54:32.633Z,67.7
2024-02-01T11:55:32.639Z,48.9
2024-02-01T11:56:32.649Z,89.7
2024-02-01T11:57:32.657Z,73
2024-02-01T11:58:32.980Z,91.1
2024-02-01T11:59:32.628Z,170.9
2024-02-01T12:00:44.445Z,225.7
2024-02-01T12:01:32.820Z,238.4
2024-02-01T12:02:32.679Z,232.4
2024-02-01T12:03:32.683Z,215.7
2024-02-01T12:04:32.703Z,200
2024-02-01T12:05:32.676Z,186.5
2024-02-01T12:06:32.657Z,180.2
2024-02-01T12:07:32.652Z,42.3
2024-02-01T12:08:35.263Z,23.2
2024-02-01T12:09:32.631Z,109.2
2024-02-01T12:10:32.638Z,113
2024-02-01T12:11:32.664Z,79.2
2024-02-01T12:12:32.620Z,18.2
2024-02-01T12:13:32.667Z,0.5
2024-02-01T12:14:34.583Z,1.7
2024-02-01T12:15:32.688Z,358.8
2024-02-01T12:16:32.696Z,3.4
2024-02-01T12:17:32.725Z,10.2
2024-02-01T12:18:32.836Z,27.4
2024-02-01T12:19:32.704Z,31.3
2024-02-01T12:20:32.647Z,73.8
2024-02-01T12:21:32.649Z,92.5
2024-02-01T12:22:32.651Z,110
2024-02-01T12:23:32.630Z,117.4
2024-02-01T12:24:32.643Z,119.4
2024-02-01T12:25:32.666Z,123.8
2024-02-01T12:26:32.630Z,130.5
2024-02-01T12:27:32.640Z,69.4
2024-02-01T12:28:32.654Z,359.4
2024-02-01T12:29:32.637Z,1.7
2024-02-01T12:30:32.695Z,15.6
2024-02-01T12:31:32.628Z,31.3
2024-02-01T12:32:35.425Z,84.2
2024-02-01T12:33:32.814Z,76.2
2024-02-01T12:34:32.795Z,38.4
2024-02-01T12:35:32.657Z,23.7
2024-02-01T12:36:32.649Z,23
2024-02-01T12:37:32.622Z,41.3
2024-02-01T12:38:33.351Z,7.1
2024-02-01T12:39:32.669Z,4.5
2024-02-01T12:40:32.652Z,7.6
2024-02-01T12:41:32.647Z,29.2
2024-02-01T12:42:32.633Z,91.1
2024-02-01T12:43:32.624Z,72.2
2024-02-01T12:44:32.646Z,75.1
2024-02-01T12:45:32.629Z,51.6
2024-02-01T12:46:32.625Z,70.7
2024-02-01T12:47:32.713Z,52.4
2024-02-01T12:48:32.785Z,27.9
2024-02-01T12:49:32.739Z,8.8
2024-02-01T12:50:34.818Z,7.1
2024-02-01T12:51:32.661Z,3.4
2024-02-01T12:52:32.659Z,1.1
2024-02-01T12:53:32.631Z,4
2024-02-01T12:54:32.655Z,274.8
2024-02-01T12:55:32.676Z,203.2
2024-02-01T12:56:33.739Z,159.6
2024-02-01T12:57:32.679Z,119
2024-02-01T12:58:32.607Z,104.5
2024-02-01T12:59:32.637Z,62.3
2024-02-01T13:00:32.990Z,56.9
2024-02-01T13:01:32.659Z,50.9
2024-02-01T13:02:32.653Z,57.9
2024-02-01T13:03:32.669Z,60.5
2024-02-01T13:04:32.747Z,109.7
2024-02-01T13:05:32.698Z,115.1